sensor_id;sensor_type;location;lat;lon;timestamp;pressure;altitude;pressure_sealevel;temperature;humidity
20942;BME280;10630;53.734;10.282;2023-02-28T00:00:20;102805.66;;;9.44;53.81
20942;BME280;10630;53.734;10.282;2023-02-28T00:02:49;102798.19;;;9.49;53.98
20942;BME280;10630;53.734;10.282;2023-02-28T00:05:18;102800.22;;;9.46;54.22
20942;BME280;10630;53.734;10.282;2023-02-28T00:07:47;102797.09;;;9.65;53.99
20942;BME280;10630;53.734;10.282;2023-02-28T00:10:20;102799.03;;;9.50;54.24
20942;BME280;10630;53.734;10.282;2023-02-28T00:12:49;102799.25;;;9.60;54.36
20942;BME280;10630;53.734;10.282;2023-02-28T00:18:08;102802.59;;;9.62;54.47
20942;BME280;10630;53.734;10.282;2023-02-28T00:20:39;102796.88;;;9.68;54.01
20942;BME280;10630;53.734;10.282;2023-02-28T00:23:07;102799.00;;;9.63;54.01
20942;BME280;10630;53.734;10.282;2023-02-28T00:25:35;102800.59;;;9.65;54.04
20942;BME280;10630;53.734;10.282;2023-02-28T00:28:16;102798.28;;;9.61;54.25
20942;BME280;10630;53.734;10.282;2023-02-28T00:30:42;102806.91;;;9.13;54.01
20942;BME280;10630;53.734;10.282;2023-02-28T00:33:10;102799.69;;;9.02;55.48
20942;BME280;10630;53.734;10.282;2023-02-28T00:35:38;102801.09;;;9.33;55.28
20942;BME280;10630;53.734;10.282;2023-02-28T00:38:05;102799.94;;;9.12;55.04
20942;BME280;10630;53.734;10.282;2023-02-28T00:40:33;102795.00;;;9.44;55.19
20942;BME280;10630;53.734;10.282;2023-02-28T00:43:02;102804.78;;;9.44;54.92
20942;BME280;10630;53.734;10.282;2023-02-28T00:45:30;102808.34;;;9.69;54.26
20942;BME280;10630;53.734;10.282;2023-02-28T00:47:58;102807.16;;;9.23;54.23
20942;BME280;10630;53.734;10.282;2023-02-28T00:50:25;102810.00;;;9.32;54.50
20942;BME280;10630;53.734;10.282;2023-02-28T00:52:53;102814.53;;;9.69;53.76
20942;BME280;10630;53.734;10.282;2023-02-28T00:55:20;102811.59;;;9.48;53.42
20942;BME280;10630;53.734;10.282;2023-02-28T00:57:48;102809.56;;;9.39;53.69
20942;BME280;10630;53.734;10.282;2023-02-28T01:00:16;102808.19;;;9.33;53.38
20942;BME280;10630;53.734;10.282;2023-02-28T01:02:43;102813.91;;;9.01;53.91
20942;BME280;10630;53.734;10.282;2023-02-28T01:05:11;102810.31;;;9.02;54.25
20942;BME280;10630;53.734;10.282;2023-02-28T01:07:38;102809.88;;;9.08;53.76
20942;BME280;10630;53.734;10.282;2023-02-28T01:10:05;102803.63;;;9.09;54.33
20942;BME280;10630;53.734;10.282;2023-02-28T01:12:38;102811.47;;;9.37;54.05
20942;BME280;10630;53.734;10.282;2023-02-28T01:15:06;102810.94;;;9.57;53.63
20942;BME280;10630;53.734;10.282;2023-02-28T01:17:33;102808.38;;;9.56;53.62
20942;BME280;10630;53.734;10.282;2023-02-28T01:20:01;102803.31;;;9.27;53.96
20942;BME280;10630;53.734;10.282;2023-02-28T01:22:29;102808.38;;;9.43;53.57
20942;BME280;10630;53.734;10.282;2023-02-28T01:24:56;102807.56;;;9.29;53.68
20942;BME280;10630;53.734;10.282;2023-02-28T01:27:23;102812.44;;;9.35;53.65
20942;BME280;10630;53.734;10.282;2023-02-28T01:29:53;102810.97;;;9.44;53.77
20942;BME280;10630;53.734;10.282;2023-02-28T01:32:20;102816.06;;;9.34;53.29
20942;BME280;10630;53.734;10.282;2023-02-28T01:35:04;102813.31;;;9.23;53.69
20942;BME280;10630;53.734;10.282;2023-02-28T01:37:33;102813.63;;;9.44;53.50
20942;BME280;10630;53.734;10.282;2023-02-28T01:40:01;102816.78;;;9.24;53.63
20942;BME280;10630;53.734;10.282;2023-02-28T01:42:29;102810.63;;;9.10;54.41
20942;BME280;10630;53.734;10.282;2023-02-28T01:44:58;102810.75;;;9.09;54.55
20942;BME280;10630;53.734;10.282;2023-02-28T01:47:36;102800.25;;;9.07;54.82
20942;BME280;10630;53.734;10.282;2023-02-28T01:52:56;102798.19;;;9.37;54.51
20942;BME280;10630;53.734;10.282;2023-02-28T01:55:24;102792.88;;;9.49;53.84
20942;BME280;10630;53.734;10.282;2023-02-28T01:57:55;102798.44;;;9.33;54.48
20942;BME280;10630;53.734;10.282;2023-02-28T02:00:32;102801.47;;;9.40;54.21
20942;BME280;10630;53.734;10.282;2023-02-28T02:03:00;102803.34;;;9.64;53.77
20942;BME280;10630;53.734;10.282;2023-02-28T02:05:31;102802.59;;;9.75;53.57
20942;BME280;10630;53.734;10.282;2023-02-28T02:08:04;102800.69;;;9.64;53.15
20942;BME280;10630;53.734;10.282;2023-02-28T02:10:36;102797.19;;;9.76;53.33
20942;BME280;10630;53.734;10.282;2023-02-28T02:37:49;102796.72;;;9.19;54.85
20942;BME280;10630;53.734;10.282;2023-02-28T02:40:11;102788.63;;;9.21;55.33
20942;BME280;10630;53.734;10.282;2023-02-28T02:45:07;102781.50;;;8.83;55.63
20942;BME280;10630;53.734;10.282;2023-02-28T02:47:42;102789.56;;;8.68;56.79
20942;BME280;10630;53.734;10.282;2023-02-28T02:50:12;102781.44;;;8.17;56.86
20942;BME280;10630;53.734;10.282;2023-02-28T02:52:44;102785.75;;;8.85;56.66
20942;BME280;10630;53.734;10.282;2023-02-28T02:55:15;102789.47;;;8.83;55.65
20942;BME280;10630;53.734;10.282;2023-02-28T02:57:48;102787.78;;;8.82;55.79
20942;BME280;10630;53.734;10.282;2023-02-28T03:00:20;102789.16;;;8.62;55.80
20942;BME280;10630;53.734;10.282;2023-02-28T03:02:47;102782.13;;;8.61;56.11
20942;BME280;10630;53.734;10.282;2023-02-28T03:05:19;102793.09;;;8.69;56.14
20942;BME280;10630;53.734;10.282;2023-02-28T03:07:50;102793.25;;;8.53;56.01
20942;BME280;10630;53.734;10.282;2023-02-28T03:13:19;102790.47;;;8.14;56.45
20942;BME280;10630;53.734;10.282;2023-02-28T03:15:55;102797.50;;;8.01;56.67
20942;BME280;10630;53.734;10.282;2023-02-28T03:18:28;102796.91;;;8.10;56.79
20942;BME280;10630;53.734;10.282;2023-02-28T03:21:06;102801.19;;;7.98;56.69
20942;BME280;10630;53.734;10.282;2023-02-28T03:23:38;102806.84;;;8.06;56.76
20942;BME280;10630;53.734;10.282;2023-02-28T03:26:16;102798.84;;;7.93;56.60
20942;BME280;10630;53.734;10.282;2023-02-28T03:28:52;102798.28;;;7.88;56.31
20942;BME280;10630;53.734;10.282;2023-02-28T03:31:30;102807.91;;;7.62;56.88
20942;BME280;10630;53.734;10.282;2023-02-28T03:39:14;102813.69;;;7.54;56.65
20942;BME280;10630;53.734;10.282;2023-02-28T03:44:14;102816.25;;;7.41;57.07
20942;BME280;10630;53.734;10.282;2023-02-28T03:47:27;102806.09;;;7.34;56.98
20942;BME280;10630;53.734;10.282;2023-02-28T03:49:41;102810.47;;;7.35;56.81
20942;BME280;10630;53.734;10.282;2023-02-28T03:52:10;102814.25;;;7.31;56.71
20942;BME280;10630;53.734;10.282;2023-02-28T03:54:44;102805.56;;;7.28;56.83
20942;BME280;10630;53.734;10.282;2023-02-28T04:00:03;102809.69;;;7.18;56.43
20942;BME280;10630;53.734;10.282;2023-02-28T04:02:35;102810.94;;;7.12;57.15
20942;BME280;10630;53.734;10.282;2023-02-28T04:05:02;102805.66;;;7.12;57.31
20942;BME280;10630;53.734;10.282;2023-02-28T04:07:36;102813.66;;;7.11;57.02
20942;BME280;10630;53.734;10.282;2023-02-28T04:10:04;102812.97;;;6.93;56.92
20942;BME280;10630;53.734;10.282;2023-02-28T04:12:32;102813.28;;;7.03;57.18
20942;BME280;10630;53.734;10.282;2023-02-28T04:14:59;102811.28;;;6.92;57.35
20942;BME280;10630;53.734;10.282;2023-02-28T04:17:29;102812.13;;;6.78;57.38
20942;BME280;10630;53.734;10.282;2023-02-28T04:19:56;102818.31;;;6.62;58.03
20942;BME280;10630;53.734;10.282;2023-02-28T04:22:24;102811.78;;;6.68;57.56
20942;BME280;10630;53.734;10.282;2023-02-28T04:24:54;102807.78;;;6.61;57.54
20942;BME280;10630;53.734;10.282;2023-02-28T04:29:57;102811.88;;;6.67;57.85
20942;BME280;10630;53.734;10.282;2023-02-28T04:32:27;102807.78;;;6.61;57.62
20942;BME280;10630;53.734;10.282;2023-02-28T04:34:54;102814.00;;;6.60;57.05
20942;BME280;10630;53.734;10.282;2023-02-28T04:37:22;102820.75;;;6.35;57.61
20942;BME280;10630;53.734;10.282;2023-02-28T04:39:54;102824.91;;;5.42;58.22
20942;BME280;10630;53.734;10.282;2023-02-28T04:42:22;102827.66;;;5.56;60.52
20942;BME280;10630;53.734;10.282;2023-02-28T04:44:50;102825.56;;;6.12;59.77
20942;BME280;10630;53.734;10.282;2023-02-28T04:47:18;102824.06;;;6.23;59.01
20942;BME280;10630;53.734;10.282;2023-02-28T04:49:47;102820.06;;;6.31;58.29
20942;BME280;10630;53.734;10.282;2023-02-28T04:52:15;102822.94;;;6.43;57.58
20942;BME280;10630;53.734;10.282;2023-02-28T04:54:43;102825.53;;;6.28;57.30
20942;BME280;10630;53.734;10.282;2023-02-28T04:57:10;102821.63;;;6.20;57.73
20942;BME280;10630;53.734;10.282;2023-02-28T04:59:38;102826.28;;;6.30;57.58
20942;BME280;10630;53.734;10.282;2023-02-28T05:02:05;102821.69;;;6.18;57.68
20942;BME280;10630;53.734;10.282;2023-02-28T05:04:34;102822.34;;;6.22;57.62
20942;BME280;10630;53.734;10.282;2023-02-28T05:07:01;102819.47;;;6.26;57.70
20942;BME280;10630;53.734;10.282;2023-02-28T05:09:45;102825.25;;;6.17;57.45
20942;BME280;10630;53.734;10.282;2023-02-28T05:12:13;102827.81;;;6.02;58.00
20942;BME280;10630;53.734;10.282;2023-02-28T05:14:40;102821.44;;;6.07;57.68
20942;BME280;10630;53.734;10.282;2023-02-28T05:17:08;102824.88;;;6.09;57.45
20942;BME280;10630;53.734;10.282;2023-02-28T05:19:35;102816.66;;;6.13;57.29
20942;BME280;10630;53.734;10.282;2023-02-28T05:22:03;102824.63;;;5.80;57.56
20942;BME280;10630;53.734;10.282;2023-02-28T05:24:30;102824.13;;;5.89;57.92
20942;BME280;10630;53.734;10.282;2023-02-28T05:26:59;102831.50;;;6.00;57.56
20942;BME280;10630;53.734;10.282;2023-02-28T05:29:27;102828.25;;;5.95;57.33
20942;BME280;10630;53.734;10.282;2023-02-28T05:31:55;102831.28;;;5.87;57.58
20942;BME280;10630;53.734;10.282;2023-02-28T05:34:22;102836.31;;;5.92;57.28
20942;BME280;10630;53.734;10.282;2023-02-28T05:36:50;102689.06;;;4.98;56.94
20942;BME280;10630;53.734;10.282;2023-02-28T05:41:50;102840.44;;;5.97;56.45
20942;BME280;10630;53.734;10.282;2023-02-28T05:44:18;102838.47;;;5.85;56.57
20942;BME280;10630;53.734;10.282;2023-02-28T05:46:47;102843.56;;;5.88;56.69
20942;BME280;10630;53.734;10.282;2023-02-28T05:49:16;102841.06;;;5.69;57.16
20942;BME280;10630;53.734;10.282;2023-02-28T05:51:43;102843.13;;;5.80;56.95
20942;BME280;10630;53.734;10.282;2023-02-28T05:54:25;102834.91;;;5.86;56.53
20942;BME280;10630;53.734;10.282;2023-02-28T05:56:53;102843.22;;;5.62;56.39
20942;BME280;10630;53.734;10.282;2023-02-28T06:01:53;102852.75;;;5.31;57.99
20942;BME280;10630;53.734;10.282;2023-02-28T06:04:21;102842.25;;;5.63;57.58
20942;BME280;10630;53.734;10.282;2023-02-28T06:06:57;102846.53;;;5.66;56.91
20942;BME280;10630;53.734;10.282;2023-02-28T06:09:26;102848.66;;;5.59;56.79
20942;BME280;10630;53.734;10.282;2023-02-28T06:11:57;102849.34;;;5.63;56.62
20942;BME280;10630;53.734;10.282;2023-02-28T06:14:24;102857.84;;;5.52;56.72
20942;BME280;10630;53.734;10.282;2023-02-28T06:16:51;102843.03;;;5.65;56.71
20942;BME280;10630;53.734;10.282;2023-02-28T06:19:19;102846.94;;;5.58;56.55
20942;BME280;10630;53.734;10.282;2023-02-28T06:21:50;102850.19;;;5.63;56.59
20942;BME280;10630;53.734;10.282;2023-02-28T06:24:19;102858.53;;;5.55;57.15
20942;BME280;10630;53.734;10.282;2023-02-28T06:26:47;102859.69;;;5.50;57.22
20942;BME280;10630;53.734;10.282;2023-02-28T06:29:14;102861.72;;;5.62;56.71
20942;BME280;10630;53.734;10.282;2023-02-28T06:31:45;102857.03;;;5.67;56.60
20942;BME280;10630;53.734;10.282;2023-02-28T06:34:13;102860.44;;;5.69;56.33
20942;BME280;10630;53.734;10.282;2023-02-28T06:36:40;102867.38;;;5.54;56.79
20942;BME280;10630;53.734;10.282;2023-02-28T06:39:08;102859.56;;;5.35;57.25
20942;BME280;10630;53.734;10.282;2023-02-28T06:41:35;102860.81;;;5.46;57.89
20942;BME280;10630;53.734;10.282;2023-02-28T06:44:20;102875.22;;;5.56;57.90
20942;BME280;10630;53.734;10.282;2023-02-28T06:46:48;102873.91;;;5.65;58.34
20942;BME280;10630;53.734;10.282;2023-02-28T06:49:15;102877.78;;;5.91;58.02
20942;BME280;10630;53.734;10.282;2023-02-28T06:51:43;102877.88;;;5.90;57.82
20942;BME280;10630;53.734;10.282;2023-02-28T06:54:12;102873.81;;;6.00;57.46
20942;BME280;10630;53.734;10.282;2023-02-28T06:56:39;102872.97;;;6.31;56.92
20942;BME280;10630;53.734;10.282;2023-02-28T06:59:05;102874.94;;;6.28;56.54
20942;BME280;10630;53.734;10.282;2023-02-28T07:01:32;102871.41;;;6.27;56.94
20942;BME280;10630;53.734;10.282;2023-02-28T07:04:00;102869.56;;;6.29;56.95
20942;BME280;10630;53.734;10.282;2023-02-28T07:06:27;102871.34;;;6.45;56.98
20942;BME280;10630;53.734;10.282;2023-02-28T07:08:54;102874.63;;;6.64;56.72
20942;BME280;10630;53.734;10.282;2023-02-28T07:11:21;102871.56;;;6.56;56.52
20942;BME280;10630;53.734;10.282;2023-02-28T07:13:52;102878.75;;;6.85;56.52
20942;BME280;10630;53.734;10.282;2023-02-28T07:16:21;102872.88;;;7.10;56.27
20942;BME280;10630;53.734;10.282;2023-02-28T07:18:47;102875.38;;;7.56;56.00
20942;BME280;10630;53.734;10.282;2023-02-28T07:21:14;102875.41;;;7.85;55.44
20942;BME280;10630;53.734;10.282;2023-02-28T07:23:41;102873.97;;;7.94;55.07
20942;BME280;10630;53.734;10.282;2023-02-28T07:26:11;102878.38;;;8.22;54.99
20942;BME280;10630;53.734;10.282;2023-02-28T07:28:41;102877.22;;;8.27;54.61
20942;BME280;10630;53.734;10.282;2023-02-28T07:31:11;102875.44;;;8.54;54.36
20942;BME280;10630;53.734;10.282;2023-02-28T07:33:43;102873.47;;;8.58;53.78
20942;BME280;10630;53.734;10.282;2023-02-28T07:36:12;102874.66;;;8.67;53.69
20942;BME280;10630;53.734;10.282;2023-02-28T07:38:42;102868.75;;;9.02;53.38
20942;BME280;10630;53.734;10.282;2023-02-28T07:41:14;102875.03;;;9.14;52.97
20942;BME280;10630;53.734;10.282;2023-02-28T07:43:41;102883.16;;;8.30;52.83
20942;BME280;10630;53.734;10.282;2023-02-28T07:46:09;102891.78;;;7.78;54.81
20942;BME280;10630;53.734;10.282;2023-02-28T07:48:36;102890.56;;;7.54;56.78
20942;BME280;10630;53.734;10.282;2023-02-28T07:51:05;102892.47;;;8.23;56.01
20942;BME280;10630;53.734;10.282;2023-02-28T07:53:33;102891.59;;;8.92;54.53
20942;BME280;10630;53.734;10.282;2023-02-28T07:56:00;102879.75;;;9.36;53.44
20942;BME280;10630;53.734;10.282;2023-02-28T07:58:28;102883.03;;;9.40;52.64
20942;BME280;10630;53.734;10.282;2023-02-28T08:00:56;102886.75;;;9.24;52.54
20942;BME280;10630;53.734;10.282;2023-02-28T08:03:24;102883.44;;;9.59;52.24
20942;BME280;10630;53.734;10.282;2023-02-28T08:05:51;102886.56;;;10.16;51.61
20942;BME280;10630;53.734;10.282;2023-02-28T08:08:19;102885.03;;;9.75;51.24
20942;BME280;10630;53.734;10.282;2023-02-28T08:10:45;102883.03;;;9.53;51.62
20942;BME280;10630;53.734;10.282;2023-02-28T08:13:12;102894.25;;;9.95;51.38
20942;BME280;10630;53.734;10.282;2023-02-28T08:15:42;102891.34;;;9.48;52.89
20942;BME280;10630;53.734;10.282;2023-02-28T08:18:11;102896.75;;;8.80;53.27
20942;BME280;10630;53.734;10.282;2023-02-28T08:20:38;102894.50;;;9.27;54.67
20942;BME280;10630;53.734;10.282;2023-02-28T08:23:06;102897.06;;;9.80;52.73
20942;BME280;10630;53.734;10.282;2023-02-28T08:25:33;102894.72;;;9.11;52.86
20942;BME280;10630;53.734;10.282;2023-02-28T08:28:01;102897.00;;;8.90;53.38
20942;BME280;10630;53.734;10.282;2023-02-28T08:30:27;102897.72;;;9.45;53.94
20942;BME280;10630;53.734;10.282;2023-02-28T08:32:54;102896.63;;;9.22;53.92
20942;BME280;10630;53.734;10.282;2023-02-28T08:35:21;102889.63;;;9.60;52.70
20942;BME280;10630;53.734;10.282;2023-02-28T08:37:50;102891.28;;;9.09;52.64
20942;BME280;10630;53.734;10.282;2023-02-28T08:40:17;102894.56;;;10.03;50.50
20942;BME280;10630;53.734;10.282;2023-02-28T08:42:45;102901.09;;;9.86;49.23
20942;BME280;10630;53.734;10.282;2023-02-28T08:45:12;102895.16;;;9.57;48.58
20942;BME280;10630;53.734;10.282;2023-02-28T08:47:39;102889.25;;;10.40;47.75
20942;BME280;10630;53.734;10.282;2023-02-28T08:50:07;102896.69;;;10.48;47.12
20942;BME280;10630;53.734;10.282;2023-02-28T08:52:34;102895.38;;;10.54;46.02
20942;BME280;10630;53.734;10.282;2023-02-28T08:55:01;102901.31;;;11.29;45.46
20942;BME280;10630;53.734;10.282;2023-02-28T08:57:28;102894.81;;;11.67;45.14
20942;BME280;10630;53.734;10.282;2023-02-28T08:59:54;102898.28;;;10.13;45.03
20942;BME280;10630;53.734;10.282;2023-02-28T09:02:21;102905.19;;;10.16;46.59
20942;BME280;10630;53.734;10.282;2023-02-28T09:04:48;102909.38;;;10.44;46.41
20942;BME280;10630;53.734;10.282;2023-02-28T09:07:17;102910.22;;;9.95;45.92
20942;BME280;10630;53.734;10.282;2023-02-28T09:09:43;102908.25;;;10.23;46.90
20942;BME280;10630;53.734;10.282;2023-02-28T09:12:21;102906.31;;;10.62;46.15
20942;BME280;10630;53.734;10.282;2023-02-28T09:14:49;102908.47;;;10.20;46.39
20942;BME280;10630;53.734;10.282;2023-02-28T09:17:15;102915.25;;;10.85;47.47
20942;BME280;10630;53.734;10.282;2023-02-28T09:19:42;102907.41;;;11.42;47.25
20942;BME280;10630;53.734;10.282;2023-02-28T09:22:09;102893.47;;;11.95;45.50
20942;BME280;10630;53.734;10.282;2023-02-28T09:24:38;102909.50;;;11.95;43.88
20942;BME280;10630;53.734;10.282;2023-02-28T09:27:06;102912.25;;;11.37;43.74
20942;BME280;10630;53.734;10.282;2023-02-28T09:29:33;102907.91;;;11.59;44.52
20942;BME280;10630;53.734;10.282;2023-02-28T09:32:01;102917.66;;;11.24;44.91
20942;BME280;10630;53.734;10.282;2023-02-28T09:34:27;102914.06;;;10.65;45.01
20942;BME280;10630;53.734;10.282;2023-02-28T09:36:57;102900.75;;;12.16;44.36
20942;BME280;10630;53.734;10.282;2023-02-28T09:39:24;102900.63;;;12.94;43.59
20942;BME280;10630;53.734;10.282;2023-02-28T09:41:54;102903.09;;;13.07;42.43
20942;BME280;10630;53.734;10.282;2023-02-28T09:47:14;102910.09;;;11.76;43.77
20942;BME280;10630;53.734;10.282;2023-02-28T09:49:45;102920.31;;;11.13;43.82
20942;BME280;10630;53.734;10.282;2023-02-28T09:52:14;102912.22;;;12.83;43.30
20942;BME280;10630;53.734;10.282;2023-02-28T09:54:42;102911.66;;;13.43;41.88
20942;BME280;10630;53.734;10.282;2023-02-28T10:02:17;102903.69;;;12.89;41.15
20942;BME280;10630;53.734;10.282;2023-02-28T10:04:58;102902.38;;;13.78;41.00
20942;BME280;10630;53.734;10.282;2023-02-28T10:09:59;102913.00;;;12.62;41.40
20942;BME280;10630;53.734;10.282;2023-02-28T10:12:27;102908.44;;;11.98;40.90
20942;BME280;10630;53.734;10.282;2023-02-28T10:14:56;102903.00;;;13.60;41.67
20942;BME280;10630;53.734;10.282;2023-02-28T10:17:26;102900.56;;;13.26;41.30
20942;BME280;10630;53.734;10.282;2023-02-28T10:20:01;102901.66;;;13.76;40.47
20942;BME280;10630;53.734;10.282;2023-02-28T10:25:20;102899.19;;;15.13;38.53
20942;BME280;10630;53.734;10.282;2023-02-28T10:27:47;102900.47;;;14.70;38.72
20942;BME280;10630;53.734;10.282;2023-02-28T10:30:13;102900.88;;;14.75;38.96
20942;BME280;10630;53.734;10.282;2023-02-28T10:32:49;102898.88;;;14.38;39.73
20942;BME280;10630;53.734;10.282;2023-02-28T10:35:21;102903.53;;;14.65;39.27
20942;BME280;10630;53.734;10.282;2023-02-28T10:37:49;102901.75;;;14.66;38.98
20942;BME280;10630;53.734;10.282;2023-02-28T10:42:54;102902.13;;;15.20;38.38
20942;BME280;10630;53.734;10.282;2023-02-28T10:45:21;102904.44;;;14.66;37.62
20942;BME280;10630;53.734;10.282;2023-02-28T10:53:51;102904.59;;;12.99;39.41
20942;BME280;10630;53.734;10.282;2023-02-28T10:56:02;102913.72;;;11.52;41.75
20942;BME280;10630;53.734;10.282;2023-02-28T11:01:22;102917.28;;;11.76;41.51
20942;BME280;10630;53.734;10.282;2023-02-28T11:03:51;102905.00;;;12.62;42.20
20942;BME280;10630;53.734;10.282;2023-02-28T11:06:19;102905.81;;;13.38;40.75
20942;BME280;10630;53.734;10.282;2023-02-28T11:08:58;102898.09;;;14.67;39.77
20942;BME280;10630;53.734;10.282;2023-02-28T11:11:28;102893.41;;;14.49;38.12
20942;BME280;10630;53.734;10.282;2023-02-28T11:13:57;102898.53;;;13.40;38.68
20942;BME280;10630;53.734;10.282;2023-02-28T11:16:34;102900.81;;;13.23;39.69
20942;BME280;10630;53.734;10.282;2023-02-28T11:19:03;102897.78;;;12.42;39.81
20942;BME280;10630;53.734;10.282;2023-02-28T11:21:33;102892.47;;;13.69;39.28
20942;BME280;10630;53.734;10.282;2023-02-28T11:24:02;102888.13;;;13.68;40.31
20942;BME280;10630;53.734;10.282;2023-02-28T11:26:43;102883.81;;;14.47;38.97
20942;BME280;10630;53.734;10.282;2023-02-28T11:29:11;102879.56;;;14.64;38.70
20942;BME280;10630;53.734;10.282;2023-02-28T11:31:38;102888.22;;;13.97;37.38
20942;BME280;10630;53.734;10.282;2023-02-28T11:34:21;102882.94;;;13.45;37.45
20942;BME280;10630;53.734;10.282;2023-02-28T11:36:49;102883.38;;;12.65;39.31
20942;BME280;10630;53.734;10.282;2023-02-28T11:39:15;102876.53;;;13.57;38.68
20942;BME280;10630;53.734;10.282;2023-02-28T11:44:36;102870.53;;;14.35;37.88
20942;BME280;10630;53.734;10.282;2023-02-28T11:55:19;102864.56;;;13.61;37.94
20942;BME280;10630;53.734;10.282;2023-02-28T12:03:00;102865.06;;;14.76;36.54
20942;BME280;10630;53.734;10.282;2023-02-28T12:05:38;102855.66;;;13.92;37.51
20942;BME280;10630;53.734;10.282;2023-02-28T12:08:20;102852.94;;;14.82;37.50
20942;BME280;10630;53.734;10.282;2023-02-28T12:13:23;102853.59;;;14.15;37.53
20942;BME280;10630;53.734;10.282;2023-02-28T12:15:58;102848.13;;;14.36;37.20
20942;BME280;10630;53.734;10.282;2023-02-28T12:23:51;102831.97;;;15.52;33.87
20942;BME280;10630;53.734;10.282;2023-02-28T12:31:59;102821.09;;;15.16;32.23
20942;BME280;10630;53.734;10.282;2023-02-28T12:34:36;102816.50;;;15.64;33.83
20942;BME280;10630;53.734;10.282;2023-02-28T12:37:06;102807.59;;;14.98;34.79
20942;BME280;10630;53.734;10.282;2023-02-28T12:39:35;102808.13;;;15.12;34.29
20942;BME280;10630;53.734;10.282;2023-02-28T12:42:26;102791.19;;;15.67;32.65
20942;BME280;10630;53.734;10.282;2023-02-28T12:45:01;102792.22;;;15.94;33.37
20942;BME280;10630;53.734;10.282;2023-02-28T12:47:28;102796.22;;;16.26;33.13
20942;BME280;10630;53.734;10.282;2023-02-28T12:52:24;102779.88;;;16.64;32.26
20942;BME280;10630;53.734;10.282;2023-02-28T13:05:39;102787.53;;;15.68;32.08
20942;BME280;10630;53.734;10.282;2023-02-28T13:08:20;102782.56;;;14.11;34.65
20942;BME280;10630;53.734;10.282;2023-02-28T13:10:57;102786.06;;;14.80;35.06
20942;BME280;10630;53.734;10.282;2023-02-28T13:13:29;102777.41;;;14.96;33.84
20942;BME280;10630;53.734;10.282;2023-02-28T13:15:58;102782.13;;;14.25;35.21
20942;BME280;10630;53.734;10.282;2023-02-28T13:18:46;102775.50;;;13.90;34.71
20942;BME280;10630;53.734;10.282;2023-02-28T13:24:04;102758.09;;;15.30;34.89
20942;BME280;10630;53.734;10.282;2023-02-28T13:34:25;102767.91;;;12.62;37.38
20942;BME280;10630;53.734;10.282;2023-02-28T13:36:52;102760.25;;;12.99;37.38
20942;BME280;10630;53.734;10.282;2023-02-28T13:58:07;102779.31;;;12.10;37.01
20942;BME280;10630;53.734;10.282;2023-02-28T14:00:50;102777.50;;;11.99;38.85
20942;BME280;10630;53.734;10.282;2023-02-28T14:05:45;102785.13;;;12.15;37.97
20942;BME280;10630;53.734;10.282;2023-02-28T14:08:20;102784.06;;;12.07;40.88
20942;BME280;10630;53.734;10.282;2023-02-28T14:10:49;102777.16;;;12.58;39.47
20942;BME280;10630;53.734;10.282;2023-02-28T14:13:37;102770.47;;;13.47;36.88
20942;BME280;10630;53.734;10.282;2023-02-28T14:16:14;102782.50;;;13.72;36.63
20942;BME280;10630;53.734;10.282;2023-02-28T14:18:47;102778.22;;;13.50;37.28
20942;BME280;10630;53.734;10.282;2023-02-28T14:21:32;102784.75;;;13.67;37.15
20942;BME280;10630;53.734;10.282;2023-02-28T14:32:13;102781.03;;;11.88;38.14
20942;BME280;10630;53.734;10.282;2023-02-28T14:34:56;102777.50;;;13.17;37.67
20942;BME280;10630;53.734;10.282;2023-02-28T14:37:28;102775.50;;;14.00;35.25
20942;BME280;10630;53.734;10.282;2023-02-28T14:39:56;102776.84;;;13.65;35.36
20942;BME280;10630;53.734;10.282;2023-02-28T14:42:26;102780.09;;;13.38;36.89
20942;BME280;10630;53.734;10.282;2023-02-28T14:44:54;102771.13;;;14.78;35.16
20942;BME280;10630;53.734;10.282;2023-02-28T14:47:22;102774.16;;;14.93;34.79
20942;BME280;10630;53.734;10.282;2023-02-28T14:49:49;102765.97;;;15.04;34.14
20942;BME280;10630;53.734;10.282;2023-02-28T14:52:19;102778.09;;;13.20;34.96
20942;BME280;10630;53.734;10.282;2023-02-28T14:54:51;102766.50;;;13.10;36.83
20942;BME280;10630;53.734;10.282;2023-02-28T14:57:23;102770.75;;;13.53;36.59
20942;BME280;10630;53.734;10.282;2023-02-28T15:02:39;102774.50;;;12.37;38.71
20942;BME280;10630;53.734;10.282;2023-02-28T15:07:36;102753.22;;;13.80;36.96
20942;BME280;10630;53.734;10.282;2023-02-28T15:12:36;102745.03;;;13.21;39.14
20942;BME280;10630;53.734;10.282;2023-02-28T15:15:03;102745.63;;;13.85;37.67
20942;BME280;10630;53.734;10.282;2023-02-28T15:17:29;102740.69;;;14.10;36.58
20942;BME280;10630;53.734;10.282;2023-02-28T15:19:56;102740.81;;;13.59;36.29
20942;BME280;10630;53.734;10.282;2023-02-28T15:22:27;102742.63;;;14.47;36.31
20942;BME280;10630;53.734;10.282;2023-02-28T15:24:55;102745.59;;;14.54;35.34
20942;BME280;10630;53.734;10.282;2023-02-28T15:27:29;102738.84;;;14.40;36.12
20942;BME280;10630;53.734;10.282;2023-02-28T15:30:05;102737.69;;;14.72;35.93
20942;BME280;10630;53.734;10.282;2023-02-28T15:32:34;102730.56;;;12.72;35.88
20942;BME280;10630;53.734;10.282;2023-02-28T15:37:58;102734.03;;;13.24;36.91
20942;BME280;10630;53.734;10.282;2023-02-28T15:40:35;102733.97;;;13.05;37.67
20942;BME280;10630;53.734;10.282;2023-02-28T15:43:04;102727.28;;;13.20;37.75
20942;BME280;10630;53.734;10.282;2023-02-28T15:45:33;102718.25;;;13.52;37.56
20942;BME280;10630;53.734;10.282;2023-02-28T15:48:04;102718.72;;;14.06;37.61
20942;BME280;10630;53.734;10.282;2023-02-28T15:50:39;102718.72;;;14.16;37.87